STQ10 EDLW-EDDF
Flight info
| Callsign | STQ10 |
|---|---|
| Flight time | N/A |
| Altitude | 8000 |
| Route | GMH8Q GMH DCT COL/N0323F110 T911 ROLIS ROLIS5D |
| Aircraft | C525/L-SDFGRWY/S |
Departure
| Time | 2026-04-30 15:07 |
|---|---|
| Airport | Dortmund Airport (EDLW) |
Arrival
| Time | N/A |
|---|---|
| Airport | Frankfurt Main Airport (EDDF) |
| Time | Latitude | Longitude | Altitude | Speed | Heading |
|---|---|---|---|---|---|
| 2026-04-30 14:42 | 51.51191 | 7.60394 | 446 ft | 0 kts | 195° |
| 2026-04-30 14:59 | 51.51188 | 7.60393 | 446 ft | 2 kts | 210° |
| 2026-04-30 15:00 | 51.51150 | 7.60228 | 446 ft | 5 kts | 235° |
| 2026-04-30 15:00 | 51.51176 | 7.60161 | 446 ft | 4 kts | 19° |
| 2026-04-30 15:01 | 51.51249 | 7.60323 | 439 ft | 14 kts | 62° |
| 2026-04-30 15:01 | 51.51303 | 7.60475 | 433 ft | 16 kts | 60° |
| 2026-04-30 15:01 | 51.51400 | 7.60747 | 424 ft | 10 kts | 63° |
| 2026-04-30 15:02 | 51.51432 | 7.60836 | 424 ft | 8 kts | 59° |
| 2026-04-30 15:02 | 51.51459 | 7.60912 | 424 ft | 8 kts | 61° |
| 2026-04-30 15:03 | 51.51570 | 7.61010 | 424 ft | 5 kts | 281° |
| 2026-04-30 15:03 | 51.51530 | 7.60885 | 424 ft | 8 kts | 237° |
| 2026-04-30 15:04 | 51.51465 | 7.60683 | 424 ft | 9 kts | 248° |
| 2026-04-30 15:04 | 51.51377 | 7.60448 | 424 ft | 10 kts | 240° |
| 2026-04-30 15:05 | 51.51498 | 7.60277 | 424 ft | 9 kts | 59° |
| 2026-04-30 15:06 | 51.51890 | 7.61400 | 466 ft | 107 kts | 64° |
| 2026-04-30 15:06 | 51.52973 | 7.63365 | 885 ft | 159 kts | 35° |
| 2026-04-30 15:07 | 51.54126 | 7.66513 | 1828 ft | 181 kts | 68° |
| 2026-04-30 15:07 | 51.55260 | 7.70304 | 3117 ft | 195 kts | 67° |
| 2026-04-30 15:08 | 51.56359 | 7.74249 | 4457 ft | 194 kts | 89° |
| 2026-04-30 15:08 | 51.53551 | 7.78396 | 6454 ft | 199 kts | 152° |
| 2026-04-30 15:09 | 51.50818 | 7.78724 | 7717 ft | 213 kts | 188° |
| 2026-04-30 15:09 | 51.47995 | 7.77220 | 8566 ft | 231 kts | 193° |
| 2026-04-30 15:10 | 51.44597 | 7.75284 | 8494 ft | 281 kts | 192° |
| 2026-04-30 15:11 | 51.37074 | 7.77939 | 8458 ft | 270 kts | 156° |
| 2026-04-30 15:11 | 51.33603 | 7.79892 | 8453 ft | 263 kts | 156° |
| 2026-04-30 15:12 | 51.28422 | 7.82812 | 8459 ft | 263 kts | 156° |
| 2026-04-30 15:13 | 51.24955 | 7.84761 | 8455 ft | 264 kts | 156° |
| 2026-04-30 15:14 | 51.17974 | 7.88553 | 8430 ft | 270 kts | 165° |
| 2026-04-30 15:14 | 51.12499 | 7.85683 | 8439 ft | 284 kts | 200° |
| 2026-04-30 15:16 | 51.03583 | 7.78770 | 8350 ft | 287 kts | 201° |
| 2026-04-30 15:17 | 50.96425 | 7.73245 | 8310 ft | 285 kts | 201° |
| 2026-04-30 15:18 | 50.87507 | 7.66396 | 8315 ft | 284 kts | 201° |
| 2026-04-30 15:19 | 50.82178 | 7.62320 | 8317 ft | 284 kts | 201° |